sensor_id;sensor_type;location;lat;lon;timestamp;pressure;altitude;pressure_sealevel;temperature;humidity
50933;BME280;36921;49.006;9.292;2023-04-30T00:01:56;99095.91;;;10.60;100.00
50933;BME280;36921;49.006;9.292;2023-04-30T00:04:21;99086.13;;;10.59;100.00
50933;BME280;36921;49.006;9.292;2023-04-30T00:06:47;99085.50;;;10.57;100.00
50933;BME280;36921;49.006;9.292;2023-04-30T00:09:12;99097.97;;;10.58;100.00
50933;BME280;36921;49.006;9.292;2023-04-30T00:11:38;99092.56;;;10.58;100.00
50933;BME280;36921;49.006;9.292;2023-04-30T00:14:03;99096.13;;;10.59;100.00
50933;BME280;36921;49.006;9.292;2023-04-30T00:16:28;99086.53;;;10.56;100.00
50933;BME280;36921;49.006;9.292;2023-04-30T00:18:54;99094.25;;;10.59;100.00
50933;BME280;36921;49.006;9.292;2023-04-30T00:21:19;99090.25;;;10.55;100.00
50933;BME280;36921;49.006;9.292;2023-04-30T00:23:44;99084.84;;;10.55;100.00
50933;BME280;36921;49.006;9.292;2023-04-30T00:26:10;99091.69;;;10.51;100.00
50933;BME280;36921;49.006;9.292;2023-04-30T00:28:35;99092.72;;;10.50;100.00
50933;BME280;36921;49.006;9.292;2023-04-30T00:31:01;99095.63;;;10.48;100.00
50933;BME280;36921;49.006;9.292;2023-04-30T00:33:27;99099.56;;;10.46;100.00
50933;BME280;36921;49.006;9.292;2023-04-30T00:35:52;99100.00;;;10.49;100.00
50933;BME280;36921;49.006;9.292;2023-04-30T00:38:17;99100.78;;;10.43;100.00
50933;BME280;36921;49.006;9.292;2023-04-30T00:40:45;99107.28;;;10.49;100.00
50933;BME280;36921;49.006;9.292;2023-04-30T00:43:11;99110.63;;;10.51;100.00
50933;BME280;36921;49.006;9.292;2023-04-30T00:45:36;99109.34;;;10.47;100.00
50933;BME280;36921;49.006;9.292;2023-04-30T00:48:01;99118.50;;;10.46;100.00
50933;BME280;36921;49.006;9.292;2023-04-30T00:50:28;99113.47;;;10.43;100.00
50933;BME280;36921;49.006;9.292;2023-04-30T00:52:53;99117.19;;;10.42;100.00
50933;BME280;36921;49.006;9.292;2023-04-30T00:55:19;99123.44;;;10.42;100.00
50933;BME280;36921;49.006;9.292;2023-04-30T00:57:45;99120.16;;;10.47;100.00
50933;BME280;36921;49.006;9.292;2023-04-30T01:00:11;99122.44;;;10.43;100.00
50933;BME280;36921;49.006;9.292;2023-04-30T01:02:38;99114.06;;;10.38;100.00
50933;BME280;36921;49.006;9.292;2023-04-30T01:05:04;99113.59;;;10.35;100.00
50933;BME280;36921;49.006;9.292;2023-04-30T01:07:30;99118.25;;;10.41;100.00
50933;BME280;36921;49.006;9.292;2023-04-30T01:09:56;99123.78;;;10.33;100.00
50933;BME280;36921;49.006;9.292;2023-04-30T01:17:55;99129.91;;;10.26;100.00
50933;BME280;36921;49.006;9.292;2023-04-30T01:20:25;99131.53;;;10.21;100.00
50933;BME280;36921;49.006;9.292;2023-04-30T01:23:07;99126.50;;;10.18;100.00
50933;BME280;36921;49.006;9.292;2023-04-30T01:28:14;99118.59;;;10.16;100.00
50933;BME280;36921;49.006;9.292;2023-04-30T01:30:44;99114.91;;;10.24;100.00
50933;BME280;36921;49.006;9.292;2023-04-30T01:33:11;99111.78;;;10.20;100.00
50933;BME280;36921;49.006;9.292;2023-04-30T01:36:12;99107.00;;;10.22;100.00
50933;BME280;36921;49.006;9.292;2023-04-30T01:38:46;99096.59;;;10.19;100.00
50933;BME280;36921;49.006;9.292;2023-04-30T01:41:43;99098.81;;;10.16;100.00
50933;BME280;36921;49.006;9.292;2023-04-30T01:44:28;99094.63;;;10.13;100.00
50933;BME280;36921;49.006;9.292;2023-04-30T01:47:03;99100.69;;;10.15;100.00
50933;BME280;36921;49.006;9.292;2023-04-30T01:52:18;99107.91;;;10.08;100.00
50933;BME280;36921;49.006;9.292;2023-04-30T01:54:55;99098.56;;;10.10;100.00
50933;BME280;36921;49.006;9.292;2023-04-30T01:57:36;99106.88;;;10.09;100.00
50933;BME280;36921;49.006;9.292;2023-04-30T02:00:03;99105.41;;;10.06;100.00
50933;BME280;36921;49.006;9.292;2023-04-30T02:02:29;99111.81;;;10.05;100.00
50933;BME280;36921;49.006;9.292;2023-04-30T02:04:54;99107.63;;;10.03;100.00
50933;BME280;36921;49.006;9.292;2023-04-30T02:07:37;99108.88;;;10.00;100.00
50933;BME280;36921;49.006;9.292;2023-04-30T02:10:04;99106.41;;;10.05;100.00
50933;BME280;36921;49.006;9.292;2023-04-30T02:12:30;99099.75;;;10.01;100.00
50933;BME280;36921;49.006;9.292;2023-04-30T02:14:55;99100.31;;;9.97;100.00
50933;BME280;36921;49.006;9.292;2023-04-30T02:17:21;99102.31;;;10.09;100.00
50933;BME280;36921;49.006;9.292;2023-04-30T02:19:46;99103.16;;;10.10;100.00
50933;BME280;36921;49.006;9.292;2023-04-30T02:22:11;99094.00;;;10.11;100.00
50933;BME280;36921;49.006;9.292;2023-04-30T02:24:36;99090.19;;;10.05;100.00
50933;BME280;36921;49.006;9.292;2023-04-30T02:27:02;99094.78;;;10.05;100.00
50933;BME280;36921;49.006;9.292;2023-04-30T02:29:27;99092.72;;;10.07;100.00
50933;BME280;36921;49.006;9.292;2023-04-30T02:31:57;99084.88;;;10.12;100.00
50933;BME280;36921;49.006;9.292;2023-04-30T02:34:23;99088.97;;;10.08;100.00
50933;BME280;36921;49.006;9.292;2023-04-30T02:36:48;99087.72;;;10.04;100.00
50933;BME280;36921;49.006;9.292;2023-04-30T02:39:14;99094.38;;;10.08;100.00
50933;BME280;36921;49.006;9.292;2023-04-30T02:41:39;99096.44;;;10.06;100.00
50933;BME280;36921;49.006;9.292;2023-04-30T02:44:05;99093.50;;;10.01;100.00
50933;BME280;36921;49.006;9.292;2023-04-30T02:46:30;99098.91;;;10.01;100.00
50933;BME280;36921;49.006;9.292;2023-04-30T02:48:55;99088.47;;;9.98;100.00
50933;BME280;36921;49.006;9.292;2023-04-30T02:53:56;99078.44;;;9.92;100.00
50933;BME280;36921;49.006;9.292;2023-04-30T02:56:21;99063.16;;;9.84;100.00
50933;BME280;36921;49.006;9.292;2023-04-30T02:58:47;99067.53;;;9.85;100.00
50933;BME280;36921;49.006;9.292;2023-04-30T03:01:12;99093.59;;;9.93;100.00
50933;BME280;36921;49.006;9.292;2023-04-30T03:03:38;99083.38;;;9.88;100.00
50933;BME280;36921;49.006;9.292;2023-04-30T03:06:03;99075.47;;;9.86;100.00
50933;BME280;36921;49.006;9.292;2023-04-30T03:08:28;99073.81;;;9.85;100.00
50933;BME280;36921;49.006;9.292;2023-04-30T03:10:54;99091.81;;;10.00;100.00
50933;BME280;36921;49.006;9.292;2023-04-30T03:13:19;99072.75;;;9.86;100.00
50933;BME280;36921;49.006;9.292;2023-04-30T03:15:45;99084.16;;;10.03;100.00
50933;BME280;36921;49.006;9.292;2023-04-30T03:18:10;99078.00;;;9.88;100.00
50933;BME280;36921;49.006;9.292;2023-04-30T03:20:35;99080.94;;;9.93;100.00
50933;BME280;36921;49.006;9.292;2023-04-30T03:23:01;99075.84;;;9.83;100.00
50933;BME280;36921;49.006;9.292;2023-04-30T03:25:26;99078.16;;;9.86;100.00
50933;BME280;36921;49.006;9.292;2023-04-30T03:27:51;99077.50;;;9.84;100.00
50933;BME280;36921;49.006;9.292;2023-04-30T03:30:17;99073.81;;;9.85;100.00
50933;BME280;36921;49.006;9.292;2023-04-30T03:32:42;99063.38;;;9.82;100.00
50933;BME280;36921;49.006;9.292;2023-04-30T03:35:08;99072.94;;;9.85;100.00
50933;BME280;36921;49.006;9.292;2023-04-30T03:37:33;99072.50;;;9.81;100.00
50933;BME280;36921;49.006;9.292;2023-04-30T03:39:58;99079.59;;;9.82;100.00
50933;BME280;36921;49.006;9.292;2023-04-30T03:42:23;99077.34;;;9.86;100.00
50933;BME280;36921;49.006;9.292;2023-04-30T03:44:49;99063.88;;;9.71;100.00
50933;BME280;36921;49.006;9.292;2023-04-30T03:47:14;99066.94;;;9.68;100.00
50933;BME280;36921;49.006;9.292;2023-04-30T03:49:40;99089.47;;;9.75;100.00
50933;BME280;36921;49.006;9.292;2023-04-30T03:52:05;99067.72;;;9.62;100.00
50933;BME280;36921;49.006;9.292;2023-04-30T03:54:31;99087.44;;;9.77;100.00
50933;BME280;36921;49.006;9.292;2023-04-30T03:56:58;99069.00;;;9.66;100.00
50933;BME280;36921;49.006;9.292;2023-04-30T03:59:23;99081.38;;;9.75;100.00
50933;BME280;36921;49.006;9.292;2023-04-30T04:01:49;99055.09;;;9.69;100.00
50933;BME280;36921;49.006;9.292;2023-04-30T04:04:15;99064.56;;;9.58;100.00
50933;BME280;36921;49.006;9.292;2023-04-30T04:06:40;99053.97;;;9.57;100.00
50933;BME280;36921;49.006;9.292;2023-04-30T04:09:05;99065.03;;;9.62;100.00
50933;BME280;36921;49.006;9.292;2023-04-30T04:11:31;99061.03;;;9.58;100.00
50933;BME280;36921;49.006;9.292;2023-04-30T04:13:56;99055.63;;;9.58;100.00
50933;BME280;36921;49.006;9.292;2023-04-30T04:16:21;99088.84;;;9.73;100.00
50933;BME280;36921;49.006;9.292;2023-04-30T04:18:46;99082.91;;;9.63;100.00
50933;BME280;36921;49.006;9.292;2023-04-30T04:21:12;99084.94;;;9.61;100.00
50933;BME280;36921;49.006;9.292;2023-04-30T04:23:37;99058.44;;;9.50;100.00
50933;BME280;36921;49.006;9.292;2023-04-30T04:26:02;99093.97;;;9.68;100.00
50933;BME280;36921;49.006;9.292;2023-04-30T04:28:28;99097.06;;;9.65;100.00
50933;BME280;36921;49.006;9.292;2023-04-30T04:30:53;99082.63;;;9.58;100.00
50933;BME280;36921;49.006;9.292;2023-04-30T04:33:18;99105.50;;;9.77;100.00
50933;BME280;36921;49.006;9.292;2023-04-30T04:35:44;99094.88;;;9.75;100.00
50933;BME280;36921;49.006;9.292;2023-04-30T04:38:10;99099.97;;;9.85;100.00
50933;BME280;36921;49.006;9.292;2023-04-30T04:40:35;99092.72;;;9.85;100.00
50933;BME280;36921;49.006;9.292;2023-04-30T04:43:01;99093.81;;;9.91;100.00
50933;BME280;36921;49.006;9.292;2023-04-30T04:45:27;99111.91;;;9.91;100.00
50933;BME280;36921;49.006;9.292;2023-04-30T04:47:52;99084.53;;;9.79;100.00
50933;BME280;36921;49.006;9.292;2023-04-30T04:50:17;99103.13;;;9.88;100.00
50933;BME280;36921;49.006;9.292;2023-04-30T04:52:43;99110.06;;;9.98;100.00
50933;BME280;36921;49.006;9.292;2023-04-30T04:55:08;99109.59;;;10.09;100.00
50933;BME280;36921;49.006;9.292;2023-04-30T04:57:33;99106.50;;;10.12;100.00
50933;BME280;36921;49.006;9.292;2023-04-30T04:59:59;99107.84;;;10.23;100.00
50933;BME280;36921;49.006;9.292;2023-04-30T05:02:24;99093.94;;;10.26;100.00
50933;BME280;36921;49.006;9.292;2023-04-30T05:04:49;99103.53;;;10.50;100.00
50933;BME280;36921;49.006;9.292;2023-04-30T05:07:16;99094.41;;;10.51;100.00
50933;BME280;36921;49.006;9.292;2023-04-30T05:09:43;99099.66;;;10.59;100.00
50933;BME280;36921;49.006;9.292;2023-04-30T05:12:09;99094.13;;;10.74;100.00
50933;BME280;36921;49.006;9.292;2023-04-30T05:14:34;99086.13;;;10.87;100.00
50933;BME280;36921;49.006;9.292;2023-04-30T05:17:01;99097.28;;;11.06;100.00
50933;BME280;36921;49.006;9.292;2023-04-30T05:19:26;99072.94;;;11.12;100.00
50933;BME280;36921;49.006;9.292;2023-04-30T05:21:51;99101.72;;;11.61;100.00
50933;BME280;36921;49.006;9.292;2023-04-30T05:24:17;99088.34;;;11.60;100.00
50933;BME280;36921;49.006;9.292;2023-04-30T05:26:42;99101.34;;;11.78;100.00
50933;BME280;36921;49.006;9.292;2023-04-30T05:29:08;99093.50;;;11.90;100.00
50933;BME280;36921;49.006;9.292;2023-04-30T05:31:34;99085.97;;;11.92;100.00
50933;BME280;36921;49.006;9.292;2023-04-30T05:34:00;99064.09;;;12.06;100.00
50933;BME280;36921;49.006;9.292;2023-04-30T05:36:26;99067.91;;;12.45;100.00
50933;BME280;36921;49.006;9.292;2023-04-30T05:38:52;99069.75;;;12.65;100.00
50933;BME280;36921;49.006;9.292;2023-04-30T05:41:17;99094.72;;;13.20;100.00
50933;BME280;36921;49.006;9.292;2023-04-30T05:43:43;99085.03;;;13.51;100.00
50933;BME280;36921;49.006;9.292;2023-04-30T05:46:08;99070.63;;;13.50;100.00
50933;BME280;36921;49.006;9.292;2023-04-30T05:48:33;99060.75;;;13.63;100.00
50933;BME280;36921;49.006;9.292;2023-04-30T05:50:58;99071.41;;;13.96;100.00
50933;BME280;36921;49.006;9.292;2023-04-30T05:53:24;99089.38;;;14.03;100.00
50933;BME280;36921;49.006;9.292;2023-04-30T05:55:49;99060.06;;;14.06;100.00
50933;BME280;36921;49.006;9.292;2023-04-30T05:58:15;99076.25;;;14.25;100.00
50933;BME280;36921;49.006;9.292;2023-04-30T06:00:40;99055.09;;;13.96;100.00
50933;BME280;36921;49.006;9.292;2023-04-30T06:03:05;99043.44;;;14.20;100.00
50933;BME280;36921;49.006;9.292;2023-04-30T06:05:31;99074.75;;;15.23;100.00
50933;BME280;36921;49.006;9.292;2023-04-30T06:07:57;99056.09;;;16.95;100.00
50933;BME280;36921;49.006;9.292;2023-04-30T06:10:22;99077.47;;;19.15;98.35
50933;BME280;36921;49.006;9.292;2023-04-30T06:12:48;99067.84;;;19.57;89.95
50933;BME280;36921;49.006;9.292;2023-04-30T06:15:13;99086.13;;;20.44;79.10
50933;BME280;36921;49.006;9.292;2023-04-30T06:17:38;99064.16;;;20.44;75.84
50933;BME280;36921;49.006;9.292;2023-04-30T06:20:05;99082.94;;;20.90;74.68
50933;BME280;36921;49.006;9.292;2023-04-30T06:22:31;99074.84;;;21.10;70.31
50933;BME280;36921;49.006;9.292;2023-04-30T06:24:57;99071.91;;;21.75;66.93
50933;BME280;36921;49.006;9.292;2023-04-30T06:27:22;99066.94;;;21.24;67.61
50933;BME280;36921;49.006;9.292;2023-04-30T06:29:48;99072.47;;;21.87;66.25
50933;BME280;36921;49.006;9.292;2023-04-30T06:32:13;99069.31;;;22.62;64.71
50933;BME280;36921;49.006;9.292;2023-04-30T06:34:38;99053.63;;;21.53;62.00
50933;BME280;36921;49.006;9.292;2023-04-30T06:37:04;99083.34;;;23.22;60.35
50933;BME280;36921;49.006;9.292;2023-04-30T06:39:29;99088.50;;;23.49;57.83
50933;BME280;36921;49.006;9.292;2023-04-30T06:41:55;99085.06;;;24.37;55.75
50933;BME280;36921;49.006;9.292;2023-04-30T06:44:20;99063.69;;;23.33;54.67
50933;BME280;36921;49.006;9.292;2023-04-30T06:46:45;99077.66;;;23.78;55.73
50933;BME280;36921;49.006;9.292;2023-04-30T06:49:10;99084.66;;;24.54;53.36
50933;BME280;36921;49.006;9.292;2023-04-30T06:51:36;99101.72;;;25.30;51.82
50933;BME280;36921;49.006;9.292;2023-04-30T06:54:01;99084.47;;;24.45;52.04
50933;BME280;36921;49.006;9.292;2023-04-30T06:56:26;99081.00;;;24.64;51.27
50933;BME280;36921;49.006;9.292;2023-04-30T06:58:52;99078.59;;;25.21;50.42
50933;BME280;36921;49.006;9.292;2023-04-30T07:01:17;99079.75;;;25.63;47.53
50933;BME280;36921;49.006;9.292;2023-04-30T07:03:42;99063.66;;;25.89;47.44
50933;BME280;36921;49.006;9.292;2023-04-30T07:06:08;99072.13;;;26.35;46.05
50933;BME280;36921;49.006;9.292;2023-04-30T07:08:33;99079.41;;;26.31;44.82
50933;BME280;36921;49.006;9.292;2023-04-30T07:10:58;99088.38;;;25.37;46.81
50933;BME280;36921;49.006;9.292;2023-04-30T07:13:24;99096.19;;;25.01;46.18
50933;BME280;36921;49.006;9.292;2023-04-30T07:15:49;99074.47;;;26.28;44.43
50933;BME280;36921;49.006;9.292;2023-04-30T07:18:15;99076.91;;;26.49;44.32
50933;BME280;36921;49.006;9.292;2023-04-30T07:20:41;99073.41;;;27.27;43.02
50933;BME280;36921;49.006;9.292;2023-04-30T07:23:06;99073.50;;;27.78;42.15
50933;BME280;36921;49.006;9.292;2023-04-30T07:25:31;99084.63;;;27.78;41.35
50933;BME280;36921;49.006;9.292;2023-04-30T07:27:57;99081.72;;;27.69;41.84
50933;BME280;36921;49.006;9.292;2023-04-30T07:30:22;99074.50;;;27.95;41.36
50933;BME280;36921;49.006;9.292;2023-04-30T07:32:47;99071.28;;;28.16;39.80
50933;BME280;36921;49.006;9.292;2023-04-30T07:35:13;99063.88;;;28.11;41.01
50933;BME280;36921;49.006;9.292;2023-04-30T07:37:39;99056.91;;;27.86;40.25
50933;BME280;36921;49.006;9.292;2023-04-30T07:40:05;99047.91;;;28.03;40.27
50933;BME280;36921;49.006;9.292;2023-04-30T07:42:31;99075.25;;;28.37;41.77
50933;BME280;36921;49.006;9.292;2023-04-30T07:44:57;99066.16;;;28.46;40.15
50933;BME280;36921;49.006;9.292;2023-04-30T07:47:22;99058.25;;;29.07;38.94
50933;BME280;36921;49.006;9.292;2023-04-30T07:49:48;99072.44;;;29.27;38.08
50933;BME280;36921;49.006;9.292;2023-04-30T07:52:13;99070.78;;;28.95;39.13
50933;BME280;36921;49.006;9.292;2023-04-30T07:54:39;99069.69;;;29.36;38.59
50933;BME280;36921;49.006;9.292;2023-04-30T07:57:05;99069.56;;;29.99;37.82
50933;BME280;36921;49.006;9.292;2023-04-30T07:59:31;99067.94;;;27.78;39.85
50933;BME280;36921;49.006;9.292;2023-04-30T08:01:56;99066.56;;;28.39;37.92
50933;BME280;36921;49.006;9.292;2023-04-30T08:04:22;99076.47;;;28.90;38.29
50933;BME280;36921;49.006;9.292;2023-04-30T08:06:47;99078.75;;;28.66;37.19
50933;BME280;36921;49.006;9.292;2023-04-30T08:09:12;99071.91;;;28.49;37.18
50933;BME280;36921;49.006;9.292;2023-04-30T08:11:39;99057.94;;;25.32;40.10
50933;BME280;36921;49.006;9.292;2023-04-30T08:14:05;99074.22;;;24.46;42.04
50933;BME280;36921;49.006;9.292;2023-04-30T08:16:31;99071.91;;;26.32;40.72
50933;BME280;36921;49.006;9.292;2023-04-30T08:18:56;99062.38;;;26.38;39.76
50933;BME280;36921;49.006;9.292;2023-04-30T08:21:21;99061.16;;;25.44;43.24
50933;BME280;36921;49.006;9.292;2023-04-30T08:23:47;99072.31;;;24.36;45.12
50933;BME280;36921;49.006;9.292;2023-04-30T08:26:12;99077.97;;;23.66;46.29
50933;BME280;36921;49.006;9.292;2023-04-30T08:28:37;99075.63;;;22.47;49.06
50933;BME280;36921;49.006;9.292;2023-04-30T08:31:03;99080.00;;;21.44;48.67
50933;BME280;36921;49.006;9.292;2023-04-30T08:33:28;99091.22;;;19.37;49.48
50933;BME280;36921;49.006;9.292;2023-04-30T08:35:54;99081.19;;;19.26;53.66
50933;BME280;36921;49.006;9.292;2023-04-30T08:38:20;99081.75;;;21.60;50.37
50933;BME280;36921;49.006;9.292;2023-04-30T08:40:55;99080.31;;;20.41;48.55
50933;BME280;36921;49.006;9.292;2023-04-30T08:43:24;99080.06;;;19.88;49.77
50933;BME280;36921;49.006;9.292;2023-04-30T08:45:49;99078.59;;;19.36;50.75
50933;BME280;36921;49.006;9.292;2023-04-30T08:48:17;99073.91;;;18.64;52.65
50933;BME280;36921;49.006;9.292;2023-04-30T08:50:43;99067.91;;;18.33;53.72
50933;BME280;36921;49.006;9.292;2023-04-30T08:53:09;99074.06;;;18.24;54.88
50933;BME280;36921;49.006;9.292;2023-04-30T08:55:35;99085.63;;;18.43;53.21
50933;BME280;36921;49.006;9.292;2023-04-30T08:58:01;99096.22;;;18.22;54.61
50933;BME280;36921;49.006;9.292;2023-04-30T09:00:26;99090.84;;;17.58;55.65
50933;BME280;36921;49.006;9.292;2023-04-30T09:02:52;99098.47;;;17.44;57.23
50933;BME280;36921;49.006;9.292;2023-04-30T09:05:17;99086.81;;;17.49;58.07
50933;BME280;36921;49.006;9.292;2023-04-30T09:07:44;99090.56;;;17.83;59.61
50933;BME280;36921;49.006;9.292;2023-04-30T09:10:17;99096.34;;;18.15;57.57
50933;BME280;36921;49.006;9.292;2023-04-30T09:12:44;99081.75;;;18.10;58.63
50933;BME280;36921;49.006;9.292;2023-04-30T09:15:21;99087.47;;;18.08;57.63
50933;BME280;36921;49.006;9.292;2023-04-30T09:17:47;99091.69;;;17.99;57.92
50933;BME280;36921;49.006;9.292;2023-04-30T09:20:13;99085.69;;;18.31;58.82
50933;BME280;36921;49.006;9.292;2023-04-30T09:22:40;99074.19;;;18.00;58.64
50933;BME280;36921;49.006;9.292;2023-04-30T09:25:07;99078.66;;;18.35;58.23
50933;BME280;36921;49.006;9.292;2023-04-30T09:27:33;99082.09;;;18.76;57.68
50933;BME280;36921;49.006;9.292;2023-04-30T09:29:58;99074.16;;;18.46;57.48
50933;BME280;36921;49.006;9.292;2023-04-30T09:32:24;99077.69;;;18.75;56.40
50933;BME280;36921;49.006;9.292;2023-04-30T09:34:49;99072.47;;;18.11;56.68
50933;BME280;36921;49.006;9.292;2023-04-30T09:37:15;99079.09;;;17.86;58.88
50933;BME280;36921;49.006;9.292;2023-04-30T09:39:53;99076.31;;;18.27;56.55
50933;BME280;36921;49.006;9.292;2023-04-30T09:42:18;99079.47;;;18.18;55.83
50933;BME280;36921;49.006;9.292;2023-04-30T09:44:44;99066.69;;;18.41;55.15
50933;BME280;36921;49.006;9.292;2023-04-30T09:47:15;99079.19;;;18.99;55.36
50933;BME280;36921;49.006;9.292;2023-04-30T09:49:42;99083.13;;;19.69;54.46
50933;BME280;36921;49.006;9.292;2023-04-30T09:52:09;99069.31;;;20.68;51.69
50933;BME280;36921;49.006;9.292;2023-04-30T09:54:35;99073.66;;;21.38;50.22
50933;BME280;36921;49.006;9.292;2023-04-30T09:57:01;99070.72;;;20.70;50.36
50933;BME280;36921;49.006;9.292;2023-04-30T09:59:31;99077.94;;;20.22;51.96
50933;BME280;36921;49.006;9.292;2023-04-30T10:02:00;99071.47;;;20.06;52.62
50933;BME280;36921;49.006;9.292;2023-04-30T10:04:28;99072.16;;;19.47;50.33
50933;BME280;36921;49.006;9.292;2023-04-30T10:06:56;99077.06;;;19.07;54.00
50933;BME280;36921;49.006;9.292;2023-04-30T10:09:24;99067.63;;;18.80;54.35
50933;BME280;36921;49.006;9.292;2023-04-30T10:11:50;99059.91;;;18.77;55.25
50933;BME280;36921;49.006;9.292;2023-04-30T10:14:18;99077.72;;;18.46;53.89
50933;BME280;36921;49.006;9.292;2023-04-30T10:19:22;99073.25;;;18.40;55.48
50933;BME280;36921;49.006;9.292;2023-04-30T10:21:47;99067.31;;;18.77;53.39
50933;BME280;36921;49.006;9.292;2023-04-30T10:24:14;99062.66;;;18.77;53.08
50933;BME280;36921;49.006;9.292;2023-04-30T10:26:40;99053.00;;;18.41;52.40
50933;BME280;36921;49.006;9.292;2023-04-30T10:29:06;99051.63;;;18.10;55.38
50933;BME280;36921;49.006;9.292;2023-04-30T10:31:32;99062.53;;;18.22;54.67
50933;BME280;36921;49.006;9.292;2023-04-30T10:36:46;99063.25;;;18.79;54.67
50933;BME280;36921;49.006;9.292;2023-04-30T10:39:14;99062.91;;;18.76;53.19
50933;BME280;36921;49.006;9.292;2023-04-30T10:41:43;99057.97;;;18.61;53.69
50933;BME280;36921;49.006;9.292;2023-04-30T10:44:09;99055.41;;;18.88;53.88
50933;BME280;36921;49.006;9.292;2023-04-30T10:46:34;99056.56;;;18.92;52.83
50933;BME280;36921;49.006;9.292;2023-04-30T10:49:00;99059.47;;;19.02;52.59
50933;BME280;36921;49.006;9.292;2023-04-30T10:51:44;99058.03;;;19.39;51.43
50933;BME280;36921;49.006;9.292;2023-04-30T10:54:10;99040.13;;;18.92;51.88
50933;BME280;36921;49.006;9.292;2023-04-30T10:56:35;99042.56;;;18.55;52.80
50933;BME280;36921;49.006;9.292;2023-04-30T10:59:01;99050.84;;;18.77;54.27
50933;BME280;36921;49.006;9.292;2023-04-30T11:01:27;99050.81;;;18.94;53.50
50933;BME280;36921;49.006;9.292;2023-04-30T11:04:06;99050.22;;;19.09;53.63
50933;BME280;36921;49.006;9.292;2023-04-30T11:06:54;99041.47;;;18.56;53.21
50933;BME280;36921;49.006;9.292;2023-04-30T11:09:42;99046.38;;;18.37;53.56
50933;BME280;36921;49.006;9.292;2023-04-30T11:12:14;99046.53;;;18.47;54.40
50933;BME280;36921;49.006;9.292;2023-04-30T11:14:44;99050.19;;;18.87;55.67
50933;BME280;36921;49.006;9.292;2023-04-30T11:17:11;99042.81;;;19.09;53.87
50933;BME280;36921;49.006;9.292;2023-04-30T11:19:47;99053.16;;;18.85;53.26
50933;BME280;36921;49.006;9.292;2023-04-30T11:22:18;99046.53;;;19.20;53.56
50933;BME280;36921;49.006;9.292;2023-04-30T11:27:26;99041.13;;;18.69;54.10
50933;BME280;36921;49.006;9.292;2023-04-30T11:29:52;99046.19;;;18.60;56.07
50933;BME280;36921;49.006;9.292;2023-04-30T11:32:18;99035.16;;;18.89;56.45
50933;BME280;36921;49.006;9.292;2023-04-30T11:34:44;99038.66;;;19.07;54.69
50933;BME280;36921;49.006;9.292;2023-04-30T11:37:22;99047.16;;;19.93;53.24
50933;BME280;36921;49.006;9.292;2023-04-30T11:39:48;99039.47;;;20.22;52.22
50933;BME280;36921;49.006;9.292;2023-04-30T11:42:17;99045.84;;;20.55;51.05
50933;BME280;36921;49.006;9.292;2023-04-30T11:44:42;99020.00;;;20.56;50.56
50933;BME280;36921;49.006;9.292;2023-04-30T11:47:07;99036.13;;;19.88;50.95
50933;BME280;36921;49.006;9.292;2023-04-30T11:49:33;99037.41;;;19.80;51.41
50933;BME280;36921;49.006;9.292;2023-04-30T11:51:58;99022.25;;;20.00;50.68
50933;BME280;36921;49.006;9.292;2023-04-30T11:54:23;99029.00;;;19.87;50.65
50933;BME280;36921;49.006;9.292;2023-04-30T11:56:49;99027.78;;;19.56;50.43
50933;BME280;36921;49.006;9.292;2023-04-30T11:59:15;99023.84;;;19.96;50.50
50933;BME280;36921;49.006;9.292;2023-04-30T12:01:41;99008.28;;;20.06;49.96
50933;BME280;36921;49.006;9.292;2023-04-30T12:04:07;99020.34;;;19.73;50.75
50933;BME280;36921;49.006;9.292;2023-04-30T12:06:33;99012.56;;;19.92;50.87
50933;BME280;36921;49.006;9.292;2023-04-30T12:08:59;99006.78;;;19.93;50.19
50933;BME280;36921;49.006;9.292;2023-04-30T12:11:27;99009.09;;;20.02;50.21
50933;BME280;36921;49.006;9.292;2023-04-30T12:13:56;99003.69;;;20.82;49.69
50933;BME280;36921;49.006;9.292;2023-04-30T12:16:23;98990.81;;;21.45;47.96
50933;BME280;36921;49.006;9.292;2023-04-30T12:18:49;98997.44;;;21.44;47.29
50933;BME280;36921;49.006;9.292;2023-04-30T12:21:16;98993.06;;;21.63;47.27
50933;BME280;36921;49.006;9.292;2023-04-30T12:23:41;98994.75;;;21.64;47.56
50933;BME280;36921;49.006;9.292;2023-04-30T12:26:07;98979.94;;;22.01;46.36
50933;BME280;36921;49.006;9.292;2023-04-30T12:28:33;98997.34;;;22.22;47.24
50933;BME280;36921;49.006;9.292;2023-04-30T12:30:59;98985.72;;;22.05;47.33
50933;BME280;36921;49.006;9.292;2023-04-30T12:33:29;98995.69;;;22.21;46.30
50933;BME280;36921;49.006;9.292;2023-04-30T12:35:55;98993.75;;;22.52;45.87
50933;BME280;36921;49.006;9.292;2023-04-30T12:38:22;98990.66;;;21.93;46.26
50933;BME280;36921;49.006;9.292;2023-04-30T12:40:47;98992.25;;;21.58;47.08
50933;BME280;36921;49.006;9.292;2023-04-30T12:43:15;98997.03;;;21.20;48.28
50933;BME280;36921;49.006;9.292;2023-04-30T12:45:49;98973.81;;;21.00;47.92
50933;BME280;36921;49.006;9.292;2023-04-30T12:48:24;98987.53;;;20.95;47.84
50933;BME280;36921;49.006;9.292;2023-04-30T12:51:00;98968.16;;;20.70;48.44
50933;BME280;36921;49.006;9.292;2023-04-30T12:53:27;98989.59;;;21.20;48.93
50933;BME280;36921;49.006;9.292;2023-04-30T12:56:17;98977.47;;;23.52;45.26
50933;BME280;36921;49.006;9.292;2023-04-30T12:58:43;98971.03;;;24.51;43.30
50933;BME280;36921;49.006;9.292;2023-04-30T13:01:16;98960.78;;;24.51;41.72
50933;BME280;36921;49.006;9.292;2023-04-30T13:03:42;98968.38;;;22.50;43.53
50933;BME280;36921;49.006;9.292;2023-04-30T13:06:07;98954.59;;;22.09;45.50
50933;BME280;36921;49.006;9.292;2023-04-30T13:08:34;98965.09;;;22.23;46.09
50933;BME280;36921;49.006;9.292;2023-04-30T13:10:59;98949.69;;;22.22;45.56
50933;BME280;36921;49.006;9.292;2023-04-30T13:13:25;98962.31;;;22.13;45.33
50933;BME280;36921;49.006;9.292;2023-04-30T13:15:50;98960.09;;;21.84;47.14
50933;BME280;36921;49.006;9.292;2023-04-30T13:18:15;98953.22;;;22.17;46.00